Time;durP1;ratioP1;P1;durP2;ratioP2;P2;SDS_P1;SDS_P2;PMS_P1;PMS_P2;Temp;Humidity;BMP_temperature;BMP_pressure;BME280_temperature;BME280_humidity;BME280_pressure;Samples;Min_cycle;Max_cycle;Signal;HPM_P1;HPM_P2
2022/09/16 00:02:13;;;;;;;1.83;0.77;;;;;;;11.46;100.00;99777.09;5021927;28;20243;-73
2022/09/16 00:04:40;;;;;;;0.80;0.70;;;;;;;11.45;100.00;99781.47;5023689;28;20215;-73
2022/09/16 00:07:06;;;;;;;1.03;0.70;;;;;;;11.45;100.00;99791.06;5021244;28;20732;-73
2022/09/16 00:09:32;;;;;;;1.57;0.80;;;;;;;11.45;100.00;99781.47;5006719;28;20208;-73
2022/09/16 00:11:59;;;;;;;0.70;0.53;;;;;;;11.44;100.00;99784.16;5019678;28;20222;-73
2022/09/16 00:14:26;;;;;;;2.47;0.70;;;;;;;11.42;100.00;99781.59;5022999;28;20230;-73
2022/09/16 00:16:53;;;;;;;1.57;0.83;;;;;;;11.40;100.00;99787.78;5021313;28;20351;-73
2022/09/16 00:19:19;;;;;;;3.03;0.80;;;;;;;11.39;100.00;99781.72;5023323;28;20208;-73
2022/09/16 00:21:47;;;;;;;0.63;0.60;;;;;;;11.40;100.00;99791.28;5021550;28;20211;-73
2022/09/16 00:24:14;;;;;;;3.10;0.87;;;;;;;11.36;100.00;99787.06;5023419;28;20207;-73
2022/09/16 00:26:41;;;;;;;1.57;0.60;;;;;;;11.32;100.00;99786.34;5022121;28;20207;-73
2022/09/16 00:29:07;;;;;;;0.93;0.60;;;;;;;11.31;100.00;99787.28;5006602;28;20668;-73
2022/09/16 00:31:35;;;;;;;1.37;0.70;;;;;;;11.26;100.00;99791.84;5020728;28;20600;-73
2022/09/16 00:34:01;;;;;;;0.80;0.47;;;;;;;11.24;100.00;99787.59;5020978;28;20712;-73
2022/09/16 00:36:29;;;;;;;0.50;0.50;;;;;;;11.18;100.00;99786.94;5021897;28;20702;-73
2022/09/16 00:38:55;;;;;;;2.90;0.93;;;;;;;11.16;100.00;99785.31;5022778;28;20287;-73
2022/09/16 00:41:24;;;;;;;1.70;0.50;;;;;;;11.13;100.00;99788.91;5021467;28;20219;-73
2022/09/16 00:43:54;;;;;;;0.90;0.50;;;;;;;11.12;100.00;99789.81;5004012;28;20717;-73
2022/09/16 00:46:26;;;;;;;0.73;0.70;;;;;;;11.15;100.00;99788.81;5021799;28;20221;-73
2022/09/16 00:48:54;;;;;;;1.27;0.77;;;;;;;11.11;100.00;99790.72;5021827;28;20196;-73
2022/09/16 00:51:24;;;;;;;1.57;0.73;;;;;;;11.14;100.00;99785.38;5018907;28;20241;-73
2022/09/16 00:53:56;;;;;;;1.60;0.80;;;;;;;11.10;100.00;99785.56;5020335;28;20653;-73
2022/09/16 00:56:25;;;;;;;0.73;0.50;;;;;;;11.12;100.00;99787.22;5003457;28;20268;-73
2022/09/16 00:59:00;;;;;;;0.60;0.60;;;;;;;11.07;100.00;99781.34;5021777;28;20211;-73
2022/09/16 01:01:27;;;;;;;1.70;0.73;;;;;;;11.06;100.00;99787.44;5022472;28;20219;-73
2022/09/16 01:03:59;;;;;;;1.23;0.60;;;;;;;10.99;100.00;99792.09;5023074;28;20499;-73
2022/09/16 01:06:27;;;;;;;0.77;0.57;;;;;;;11.01;100.00;99785.94;5023056;28;20198;-73
2022/09/16 01:08:55;;;;;;;2.20;0.97;;;;;;;11.03;100.00;99787.59;5021528;28;20195;-73
2022/09/16 01:11:21;;;;;;;0.83;0.70;;;;;;;11.04;100.00;99789.28;5000797;28;20235;-73
2022/09/16 01:13:49;;;;;;;2.83;0.70;;;;;;;11.06;100.00;99784.84;5021444;28;20577;-73
2022/09/16 01:16:24;;;;;;;1.10;0.77;;;;;;;11.09;100.00;99796.94;5023164;28;20198;-73
2022/09/16 01:18:59;;;;;;;0.73;0.70;;;;;;;11.13;100.00;99795.88;5021937;28;20210;-73
2022/09/16 01:21:38;;;;;;;0.70;0.70;;;;;;;11.10;100.00;99801.22;5022200;28;20215;-73
2022/09/16 01:24:31;;;;;;;1.20;0.77;;;;;;;11.07;100.00;99798.75;5002104;28;20226;-73
2022/09/16 01:27:36;;;;;;;0.70;0.70;;;;;;;11.10;100.00;99799.47;5004089;28;20392;-73
2022/09/16 01:30:20;;;;;;;1.03;0.70;;;;;;;11.12;100.00;99799.41;5009213;28;20218;-73
2022/09/16 01:33:00;;;;;;;0.93;0.80;;;;;;;11.12;100.00;99794.19;5021459;28;20231;-73
2022/09/16 01:35:41;;;;;;;2.00;0.80;;;;;;;11.15;100.00;99799.25;5025491;28;20213;-73
2022/09/16 01:38:21;;;;;;;0.60;0.60;;;;;;;11.14;100.00;99794.97;5025218;28;20206;-73
2022/09/16 01:40:55;;;;;;;0.77;0.77;;;;;;;11.15;100.00;99797.53;5025453;28;20225;-73
2022/09/16 01:43:29;;;;;;;1.93;0.60;;;;;;;11.15;100.00;99796.66;5024106;28;20565;-73
2022/09/16 01:45:59;;;;;;;1.33;0.70;;;;;;;11.15;100.00;99796.66;5026540;28;20217;-73
2022/09/16 01:48:34;;;;;;;1.87;0.60;;;;;;;11.15;100.00;99794.91;5024600;28;20209;-73
2022/09/16 01:51:06;;;;;;;0.70;0.70;;;;;;;11.16;100.00;99796.59;5010648;28;20219;-73
2022/09/16 01:53:37;;;;;;;2.00;0.70;;;;;;;11.21;100.00;99795.56;5059579;22;20219;-72
2022/09/16 01:56:08;;;;;;;1.50;0.73;;;;;;;11.20;100.00;99786.88;5051580;28;20207;-72
2022/09/16 01:58:40;;;;;;;1.03;0.60;;;;;;;11.20;100.00;99789.50;5036803;28;20221;-72
2022/09/16 02:01:14;;;;;;;2.97;0.90;;;;;;;11.22;100.00;99799.88;5031552;28;20207;-71
2022/09/16 02:03:49;;;;;;;0.60;0.60;;;;;;;11.22;100.00;99794.66;5028901;28;20907;-72
2022/09/16 02:06:20;;;;;;;1.87;0.83;;;;;;;11.23;100.00;99785.91;5026380;28;20203;-72
2022/09/16 02:08:52;;;;;;;0.90;0.83;;;;;;;11.18;100.00;99789.53;5026284;28;20220;-71
2022/09/16 02:11:20;;;;;;;0.80;0.80;;;;;;;11.17;100.00;99785.25;5033008;28;20221;-72
2022/09/16 02:13:50;;;;;;;0.60;0.60;;;;;;;11.20;100.00;99778.22;5024735;28;20467;-72
2022/09/16 02:16:21;;;;;;;1.67;0.73;;;;;;;11.10;100.00;99781.22;5029067;28;20204;-73
2022/09/16 02:18:52;;;;;;;0.80;0.77;;;;;;;11.06;100.00;99786.59;5030817;28;20231;-72
2022/09/16 02:21:24;;;;;;;1.90;0.80;;;;;;;10.95;100.00;99784.44;5022747;28;20668;-72
2022/09/16 02:23:54;;;;;;;0.60;0.60;;;;;;;10.86;100.00;99777.00;5024259;28;20200;-72
2022/09/16 02:26:24;;;;;;;0.80;0.50;;;;;;;10.81;100.00;99785.00;5026894;28;20209;-72
2022/09/16 02:28:53;;;;;;;0.77;0.70;;;;;;;10.70;100.00;99785.44;5028153;28;20235;-72
2022/09/16 02:31:24;;;;;;;1.23;0.83;;;;;;;10.66;100.00;99785.63;5021905;28;20218;-71
2022/09/16 02:33:56;;;;;;;1.43;0.70;;;;;;;10.63;100.00;99794.41;5027299;28;20211;-72
2022/09/16 02:36:25;;;;;;;3.23;0.73;;;;;;;10.59;100.00;99790.25;5027561;28;20195;-72
2022/09/16 02:38:57;;;;;;;1.27;0.93;;;;;;;10.50;100.00;99788.84;5029282;28;20245;-72
2022/09/16 02:41:23;;;;;;;2.70;0.80;;;;;;;10.49;100.00;99789.75;5026335;28;20196;-73
2022/09/16 02:43:50;;;;;;;1.77;1.00;;;;;;;10.45;100.00;99782.09;5032607;28;20214;-72
2022/09/16 02:46:25;;;;;;;2.20;1.00;;;;;;;10.43;100.00;99787.38;5027646;28;20202;-71
2022/09/16 02:48:59;;;;;;;1.13;1.00;;;;;;;10.39;100.00;99791.00;5028430;28;20222;-72
2022/09/16 02:51:33;;;;;;;1.70;1.23;;;;;;;10.33;100.00;99789.50;5031070;28;20214;-72
2022/09/16 02:54:05;;;;;;;3.73;1.10;;;;;;;10.27;100.00;99791.44;5028563;28;20204;-72
2022/09/16 02:56:35;;;;;;;2.07;1.30;;;;;;;10.21;100.00;99793.38;5027760;28;20210;-72
2022/09/16 02:59:04;;;;;;;2.40;1.43;;;;;;;10.18;100.00;99795.25;5029078;28;20303;-72
2022/09/16 03:01:32;;;;;;;1.47;1.17;;;;;;;10.17;100.00;99799.63;5019253;28;20344;-73
2022/09/16 03:04:00;;;;;;;3.27;1.10;;;;;;;10.15;100.00;99801.44;5028475;28;20289;-72
2022/09/16 03:06:27;;;;;;;1.30;1.20;;;;;;;10.13;100.00;99798.03;5025591;28;20213;-72
2022/09/16 03:08:58;;;;;;;3.63;1.20;;;;;;;10.20;100.00;99796.91;5022686;28;20221;-72
2022/09/16 03:12:05;;;;;;;2.00;1.17;;;;;;;10.16;100.00;99794.47;5027879;28;20218;-72
2022/09/16 03:14:43;;;;;;;1.90;1.20;;;;;;;10.18;100.00;99793.50;5020607;28;20201;-70
2022/09/16 03:17:23;;;;;;;6.77;1.50;;;;;;;10.19;100.00;99795.19;5026407;28;20287;-72
2022/09/16 03:19:59;;;;;;;1.97;1.40;;;;;;;10.22;100.00;99799.44;5029443;28;20215;-72
2022/09/16 03:22:37;;;;;;;1.80;1.33;;;;;;;10.25;100.00;99799.31;5023767;28;20197;-73
2022/09/16 03:25:11;;;;;;;4.90;1.20;;;;;;;10.33;100.00;99786.03;5027556;28;20208;-72
2022/09/16 03:27:45;;;;;;;3.43;1.33;;;;;;;10.35;100.00;99781.63;5024166;28;20263;-73
2022/09/16 03:30:12;;;;;;;1.83;1.47;;;;;;;10.39;100.00;99791.84;5027277;28;20578;-72
2022/09/16 03:32:44;;;;;;;1.87;1.00;;;;;;;10.45;100.00;99782.97;5030549;28;20221;-72
2022/09/16 03:35:18;;;;;;;2.53;1.30;;;;;;;10.50;100.00;99790.59;5029997;28;20674;-72
2022/09/16 03:37:46;;;;;;;1.17;1.07;;;;;;;10.54;100.00;99784.38;5021807;28;20644;-72
2022/09/16 03:40:15;;;;;;;1.67;1.17;;;;;;;10.57;100.00;99786.81;5024751;28;20217;-71
2022/09/16 03:42:43;;;;;;;1.50;0.93;;;;;;;10.63;100.00;99793.56;5023371;28;20563;-72
2022/09/16 03:45:14;;;;;;;1.67;1.10;;;;;;;10.65;100.00;99797.81;5026627;28;20283;-72
2022/09/16 03:47:41;;;;;;;0.90;0.90;;;;;;;10.70;100.00;99795.03;5022072;28;20577;-71
2022/09/16 03:50:08;;;;;;;3.83;1.03;;;;;;;10.70;100.00;99795.03;5028269;28;20206;-73
2022/09/16 03:52:35;;;;;;;2.77;1.03;;;;;;;10.75;100.00;99793.09;5025037;28;20226;-73
2022/09/16 03:55:02;;;;;;;2.97;0.80;;;;;;;10.77;100.00;99792.09;5026397;28;20710;-73
2022/09/16 03:57:29;;;;;;;1.00;0.87;;;;;;;10.77;100.00;99788.66;5027708;28;20211;-73
2022/09/16 03:59:55;;;;;;;1.03;0.80;;;;;;;10.78;100.00;99792.94;5025174;28;20203;-72
2022/09/16 04:02:22;;;;;;;2.97;1.00;;;;;;;10.79;100.00;99795.50;5025424;28;20200;-72
2022/09/16 04:04:48;;;;;;;3.20;0.90;;;;;;;10.83;100.00;99790.16;5026877;28;20209;-72
2022/09/16 04:07:14;;;;;;;1.30;1.10;;;;;;;10.80;100.00;99789.38;5022707;28;20195;-71
2022/09/16 04:09:42;;;;;;;3.47;1.10;;;;;;;10.79;100.00;99782.47;5025003;28;20235;-72
2022/09/16 04:12:09;;;;;;;1.93;0.90;;;;;;;10.76;100.00;99792.16;5024341;28;20253;-72
2022/09/16 04:14:36;;;;;;;1.80;0.83;;;;;;;10.70;100.00;99788.03;5023568;28;20213;-71
2022/09/16 04:17:03;;;;;;;1.10;1.00;;;;;;;10.63;100.00;99784.00;5029689;28;20211;-72
2022/09/16 04:19:30;;;;;;;1.50;0.63;;;;;;;10.57;100.00;99782.47;5022349;28;20262;-71
2022/09/16 04:21:56;;;;;;;1.00;0.80;;;;;;;10.53;100.00;99788.72;5022463;28;20312;-72
2022/09/16 04:24:22;;;;;;;4.33;0.90;;;;;;;10.54;100.00;99785.19;5020845;28;20215;-71
2022/09/16 04:26:50;;;;;;;1.43;0.73;;;;;;;10.53;100.00;99791.31;5026063;28;21045;-72
2022/09/16 04:29:17;;;;;;;0.73;0.60;;;;;;;10.48;100.00;99792.41;5024891;28;20594;-72
2022/09/16 04:31:43;;;;;;;1.20;0.70;;;;;;;10.39;100.00;99791.84;5027703;28;20222;-73
2022/09/16 04:34:11;;;;;;;1.37;0.80;;;;;;;10.35;100.00;99786.84;5021309;28;20199;-69
2022/09/16 04:36:38;;;;;;;1.23;0.83;;;;;;;10.30;100.00;99789.56;5026527;28;20279;-72
2022/09/16 04:39:04;;;;;;;1.90;0.90;;;;;;;10.21;100.00;99792.53;5022649;28;20299;-70
2022/09/16 04:41:31;;;;;;;0.97;0.90;;;;;;;10.14;100.00;99793.66;5025011;28;20198;-71
2022/09/16 04:44:00;;;;;;;1.13;0.80;;;;;;;10.10;100.00;99792.94;5024015;28;20222;-72
2022/09/16 04:46:28;;;;;;;0.73;0.70;;;;;;;10.04;100.00;99796.63;5019722;28;20209;-73
2022/09/16 04:48:56;;;;;;;0.70;0.70;;;;;;;10.04;100.00;99787.94;5023868;28;20229;-71
2022/09/16 04:51:24;;;;;;;3.80;1.03;;;;;;;10.06;100.00;99783.56;5024936;28;20201;-73
2022/09/16 04:53:50;;;;;;;2.00;0.80;;;;;;;10.04;100.00;99793.16;5020596;28;20209;-73
2022/09/16 04:56:19;;;;;;;2.63;0.83;;;;;;;10.02;100.00;99789.75;5022602;28;20205;-71
2022/09/16 04:58:46;;;;;;;4.30;1.00;;;;;;;9.99;100.00;99793.34;5021905;28;20220;-72
2022/09/16 05:01:16;;;;;;;3.90;0.87;;;;;;;9.97;100.00;99792.56;5024276;28;20207;-72
2022/09/16 05:03:43;;;;;;;1.60;1.00;;;;;;;10.00;100.00;99799.38;5022861;28;20654;-73
2022/09/16 05:06:12;;;;;;;0.80;0.80;;;;;;;9.99;100.00;99789.88;5024741;28;20206;-72
2022/09/16 05:08:39;;;;;;;1.73;1.00;;;;;;;9.97;100.00;99791.69;5022036;28;20562;-72
2022/09/16 05:11:07;;;;;;;2.40;0.90;;;;;;;9.96;100.00;99798.66;5025730;28;20193;-71
2022/09/16 05:13:34;;;;;;;1.80;0.80;;;;;;;9.99;100.00;99802.88;5007335;28;20233;-72
2022/09/16 05:16:02;;;;;;;1.73;0.83;;;;;;;9.99;100.00;99793.34;5020807;28;20695;-72
2022/09/16 05:18:30;;;;;;;0.70;0.63;;;;;;;10.02;100.00;99795.81;5023673;28;20584;-72
2022/09/16 05:20:58;;;;;;;2.57;1.00;;;;;;;10.06;100.00;99796.56;5024975;28;20205;-72
2022/09/16 05:23:25;;;;;;;2.30;0.80;;;;;;;10.04;100.00;99791.41;5025834;28;20840;-73
2022/09/16 05:25:51;;;;;;;1.87;0.87;;;;;;;10.05;100.00;99795.69;5026924;28;20213;-73
2022/09/16 05:28:17;;;;;;;1.70;0.80;;;;;;;10.08;100.00;99796.50;5027153;28;20582;-72
2022/09/16 05:30:44;;;;;;;1.67;0.80;;;;;;;10.10;100.00;99805.97;5025709;28;20241;-72
2022/09/16 05:33:10;;;;;;;1.37;0.70;;;;;;;10.12;100.00;99801.53;5022679;28;20217;-72
2022/09/16 05:35:38;;;;;;;0.97;0.80;;;;;;;10.15;100.00;99801.44;5024695;28;20607;-72
2022/09/16 05:38:04;;;;;;;0.70;0.60;;;;;;;10.20;100.00;99798.63;5023897;28;20626;-70
2022/09/16 05:40:31;;;;;;;2.10;0.90;;;;;;;10.23;100.00;99796.75;5019310;28;20202;-71
2022/09/16 05:42:57;;;;;;;1.70;0.90;;;;;;;10.23;100.00;99795.91;5021940;28;20201;-72
2022/09/16 05:45:23;;;;;;;1.00;0.90;;;;;;;10.23;100.00;99799.38;5026421;28;20202;-73
2022/09/16 05:47:50;;;;;;;1.13;1.00;;;;;;;10.26;100.00;99798.41;5025488;28;20292;-72
2022/09/16 05:50:16;;;;;;;1.17;0.70;;;;;;;10.28;100.00;99803.56;5024831;28;20202;-72
2022/09/16 05:52:44;;;;;;;1.00;0.80;;;;;;;10.33;100.00;99806.88;5021823;28;20233;-71
2022/09/16 05:55:10;;;;;;;3.10;1.13;;;;;;;10.31;100.00;99796.53;5019424;28;20193;-71
2022/09/16 05:57:37;;;;;;;1.93;0.80;;;;;;;10.35;100.00;99803.31;5021894;28;20205;-72
2022/09/16 06:00:04;;;;;;;1.70;0.80;;;;;;;10.41;100.00;99805.69;5012162;28;20202;-71
2022/09/16 06:02:36;;;;;;;0.97;0.80;;;;;;;10.49;100.00;99804.53;5022491;28;20195;-72
2022/09/16 06:05:02;;;;;;;1.37;1.07;;;;;;;10.55;100.00;99812.97;5026472;28;20217;-72
2022/09/16 06:07:29;;;;;;;1.40;0.90;;;;;;;10.64;100.00;99809.16;5026085;28;20205;-72
2022/09/16 06:09:56;;;;;;;1.77;1.00;;;;;;;10.67;100.00;99811.63;5026619;28;20731;-72
2022/09/16 06:12:23;;;;;;;2.67;1.00;;;;;;;10.69;100.00;99807.19;5026590;28;20218;-72
2022/09/16 06:14:49;;;;;;;1.23;1.00;;;;;;;10.70;100.00;99811.50;5022086;28;20206;-72
2022/09/16 06:17:15;;;;;;;1.20;1.07;;;;;;;10.71;100.00;99815.81;5030095;28;20599;-72
2022/09/16 06:19:42;;;;;;;3.77;1.10;;;;;;;10.76;100.00;99803.47;5026217;28;20227;-72
2022/09/16 06:22:08;;;;;;;1.07;0.90;;;;;;;10.82;100.00;99807.56;5028457;28;20192;-71
2022/09/16 06:24:34;;;;;;;1.97;1.10;;;;;;;10.89;100.00;99810.78;5026399;28;20600;-71
2022/09/16 06:27:02;;;;;;;2.40;1.30;;;;;;;10.91;100.00;99801.97;5026402;28;20289;-72
2022/09/16 06:29:28;;;;;;;3.60;1.30;;;;;;;10.98;100.00;99803.44;5021409;28;20230;-72
2022/09/16 06:31:55;;;;;;;1.37;1.03;;;;;;;11.07;100.00;99806.59;5024833;28;20686;-72
2022/09/16 06:34:21;;;;;;;2.00;1.10;;;;;;;11.13;100.00;99804.56;5029899;28;20278;-73
2022/09/16 06:36:47;;;;;;;1.97;1.10;;;;;;;11.26;100.00;99809.28;5029618;28;20223;-73
2022/09/16 06:39:16;;;;;;;1.60;1.20;;;;;;;11.40;100.00;99809.53;5025056;28;20225;-72
2022/09/16 06:41:43;;;;;;;1.60;0.70;;;;;;;11.53;100.00;99809.84;5027191;28;20204;-73
2022/09/16 06:44:11;;;;;;;2.80;1.00;;;;;;;11.64;100.00;99807.63;5030166;28;20580;-72
2022/09/16 06:46:37;;;;;;;1.67;0.90;;;;;;;11.71;100.00;99813.44;5027492;28;20660;-71
2022/09/16 06:49:04;;;;;;;1.10;0.93;;;;;;;11.77;100.00;99807.94;5027189;28;20224;-73
2022/09/16 06:51:31;;;;;;;1.00;0.90;;;;;;;11.91;100.00;99812.59;5026043;28;20203;-73
2022/09/16 06:54:00;;;;;;;0.90;0.90;;;;;;;12.07;100.00;99812.75;5022599;28;20692;-72
2022/09/16 06:56:28;;;;;;;2.10;0.90;;;;;;;12.16;100.00;99812.34;5021329;28;20204;-71
2022/09/16 06:58:56;;;;;;;2.83;0.90;;;;;;;12.20;100.00;99815.66;5028827;28;20880;-72
2022/09/16 07:01:26;;;;;;;2.00;0.80;;;;;;;12.16;100.00;99809.72;5027192;28;20278;-72
2022/09/16 07:03:53;;;;;;;1.27;0.90;;;;;;;12.06;100.00;99818.88;5027194;28;20657;-73
2022/09/16 07:06:21;;;;;;;3.17;0.60;;;;;;;12.06;100.00;99816.28;5025363;28;20200;-71
2022/09/16 07:08:48;;;;;;;1.30;0.80;;;;;;;12.04;100.00;99816.34;5017404;28;20224;-72
2022/09/16 07:11:17;;;;;;;2.20;1.00;;;;;;;12.15;100.00;99813.25;5020746;28;20196;-73
2022/09/16 07:13:45;;;;;;;2.17;0.90;;;;;;;12.28;100.00;99819.63;5026351;28;20211;-73
2022/09/16 07:16:14;;;;;;;2.33;1.30;;;;;;;12.39;100.00;99820.88;5026318;28;20192;-72
2022/09/16 07:18:43;;;;;;;2.23;0.90;;;;;;;12.49;100.00;99817.78;5026429;28;20294;-72
2022/09/16 07:21:12;;;;;;;2.43;1.20;;;;;;;12.61;100.00;99818.97;5027797;28;20195;-72
2022/09/16 07:23:39;;;;;;;2.53;1.00;;;;;;;12.64;100.00;99823.19;5026089;28;20663;-71
2022/09/16 07:26:07;;;;;;;3.10;1.00;;;;;;;12.63;100.00;99824.97;5028149;28;20204;-72
2022/09/16 07:28:34;;;;;;;3.40;0.87;;;;;;;12.64;100.00;99821.41;5020232;28;20223;-72
2022/09/16 07:31:02;;;;;;;3.73;0.90;;;;;;;12.76;100.00;99834.84;5027666;28;20212;-73
2022/09/16 07:33:28;;;;;;;2.13;0.80;;;;;;;12.88;100.00;99832.47;5028364;28;20223;-72
2022/09/16 07:35:59;;;;;;;1.57;0.97;;;;;;;13.05;100.00;99818.59;5028509;28;20220;-71
2022/09/16 07:38:26;;;;;;;1.20;0.70;;;;;;;13.07;100.00;99824.59;5034072;22;20715;-71
2022/09/16 07:40:53;;;;;;;1.63;0.73;;;;;;;12.94;100.00;99825.25;5027581;28;20197;-72
2022/09/16 07:43:19;;;;;;;4.27;0.87;;;;;;;12.79;100.00;99827.69;5027614;28;20196;-71
2022/09/16 07:45:45;;;;;;;2.13;1.00;;;;;;;12.74;100.00;99834.06;5028131;28;20208;-71
2022/09/16 07:48:12;;;;;;;0.73;0.73;;;;;;;12.83;100.00;99831.00;5024070;28;20533;-71
2022/09/16 07:50:38;;;;;;;1.20;0.70;;;;;;;12.76;100.00;99830.44;5022153;28;20216;-71
2022/09/16 07:53:06;;;;;;;1.40;0.90;;;;;;;12.78;100.00;99839.06;5027224;28;20261;-73
2022/09/16 07:55:34;;;;;;;4.00;1.30;;;;;;;12.87;100.00;99840.41;5018690;28;20214;-71
2022/09/16 07:58:01;;;;;;;1.87;1.13;;;;;;;13.00;100.00;99838.06;5026260;28;20214;-72
2022/09/16 08:00:27;;;;;;;2.97;1.17;;;;;;;13.13;100.00;99843.53;5026179;28;20203;-72
2022/09/16 08:02:56;;;;;;;0.87;0.83;;;;;;;13.17;100.00;99834.59;5025304;28;20270;-71
2022/09/16 08:05:23;;;;;;;0.80;0.80;;;;;;;13.24;100.00;99839.47;5022418;28;20215;-71
2022/09/16 08:07:49;;;;;;;1.10;0.87;;;;;;;13.26;100.00;99834.13;5025858;28;20194;-71
2022/09/16 08:10:17;;;;;;;1.20;1.00;;;;;;;13.28;100.00;99821.84;5025085;28;20238;-71
2022/09/16 08:12:47;;;;;;;0.67;0.67;;;;;;;13.42;100.00;99831.63;5026937;28;20679;-71
2022/09/16 08:15:13;;;;;;;2.10;0.90;;;;;;;13.59;100.00;99820.31;5023501;28;20218;-72
2022/09/16 08:17:40;;;;;;;1.60;1.07;;;;;;;13.57;100.00;99825.59;5027506;28;20596;-71
2022/09/16 08:20:07;;;;;;;2.73;0.80;;;;;;;13.55;100.00;99829.25;5024142;28;20227;-72
2022/09/16 08:22:35;;;;;;;5.13;1.10;;;;;;;13.67;100.00;99822.50;5023416;28;20720;-73
2022/09/16 08:25:01;;;;;;;0.80;0.80;;;;;;;13.73;100.00;99822.22;5022639;28;20211;-71
2022/09/16 08:27:29;;;;;;;1.77;0.87;;;;;;;13.82;100.00;99825.22;5022712;28;20207;-73
2022/09/16 08:29:55;;;;;;;1.47;0.80;;;;;;;13.86;100.00;99838.13;5022870;28;20223;-71
2022/09/16 08:32:21;;;;;;;1.53;0.90;;;;;;;13.94;100.00;99831.56;5020168;28;20215;-71
2022/09/16 08:34:48;;;;;;;1.90;1.10;;;;;;;13.97;100.00;99827.94;5020149;28;20212;-72
2022/09/16 08:37:14;;;;;;;1.40;0.77;;;;;;;13.97;100.00;99827.94;5019779;28;20231;-70
2022/09/16 08:39:40;;;;;;;2.60;1.07;;;;;;;13.96;100.00;99837.56;5015576;28;20235;-73
2022/09/16 08:42:23;;;;;;;1.90;0.87;;;;;;;14.00;100.00;99833.00;5023270;28;20211;-71
2022/09/16 08:44:59;;;;;;;1.13;0.70;;;;;;;14.04;100.00;99831.94;5016994;28;20211;-71
2022/09/16 08:47:40;;;;;;;0.50;0.50;;;;;;;14.19;100.00;99832.88;5023036;28;20204;-71
2022/09/16 08:50:14;;;;;;;0.70;0.70;;;;;;;14.13;100.00;99841.91;5019904;28;20227;-72
2022/09/16 08:52:44;;;;;;;1.90;0.97;;;;;;;14.17;100.00;99840.81;5023618;28;20200;-71
2022/09/16 08:55:15;;;;;;;1.10;1.00;;;;;;;14.29;100.00;99836.69;5024511;28;20218;-71
2022/09/16 08:57:48;;;;;;;3.03;1.00;;;;;;;14.43;100.00;99838.56;5017648;28;20218;-72
2022/09/16 09:00:18;;;;;;;1.27;0.70;;;;;;;14.56;100.00;99834.38;5023106;28;20216;-73
2022/09/16 09:02:51;;;;;;;0.93;0.73;;;;;;;14.63;100.00;99834.88;5022207;28;20208;-71
2022/09/16 09:05:21;;;;;;;0.60;0.60;;;;;;;14.70;100.00;99835.38;5020764;28;20208;-71
2022/09/16 09:08:04;;;;;;;1.37;0.90;;;;;;;14.71;100.00;99837.09;5025744;28;20204;-71
2022/09/16 09:10:39;;;;;;;2.23;0.80;;;;;;;14.83;100.00;99835.53;5018869;28;20204;-73
2022/09/16 09:13:18;;;;;;;4.03;0.90;;;;;;;14.84;100.00;99834.63;5019737;28;20762;-71
2022/09/16 09:16:04;;;;;;;2.63;0.73;;;;;;;15.02;100.00;99836.22;5018339;28;20211;-71
2022/09/16 09:18:38;;;;;;;3.40;1.00;;;;;;;15.23;100.00;99831.50;5021666;28;20235;-71
2022/09/16 09:21:20;;;;;;;0.57;0.57;;;;;;;15.28;100.00;99828.59;5021317;28;20202;-73
2022/09/16 09:24:01;;;;;;;2.93;1.70;;;;;;;15.49;100.00;99827.31;5021768;28;20208;-73
2022/09/16 09:26:37;;;;;;;1.00;0.80;;;;;;;15.47;100.00;99837.09;5020576;28;20628;-71
2022/09/16 09:29:22;;;;;;;4.83;2.53;;;;;;;15.46;100.00;99832.78;5024826;28;20681;-71
2022/09/16 09:31:56;;;;;;;2.87;1.33;;;;;;;15.31;100.00;99818.75;5016599;28;20200;-71
2022/09/16 09:34:41;;;;;;;0.73;0.60;;;;;;;15.23;100.00;99828.00;5013405;28;20220;-71
2022/09/16 09:37:21;;;;;;;1.83;0.70;;;;;;;15.08;100.00;99830.59;5022438;28;20672;-72
2022/09/16 09:39:58;;;;;;;0.67;0.67;;;;;;;14.94;100.00;99826.13;5020908;28;20232;-72
2022/09/16 09:42:29;;;;;;;2.50;0.70;;;;;;;14.84;100.00;99821.50;5024140;28;20294;-72
2022/09/16 09:45:00;;;;;;;0.67;0.60;;;;;;;14.86;100.00;99825.75;5018807;28;20192;-72
2022/09/16 09:47:32;;;;;;;2.50;0.70;;;;;;;14.83;100.00;99819.78;5016940;28;20743;-72
2022/09/16 09:50:10;;;;;;;2.13;0.90;;;;;;;14.78;100.00;99814.81;5020631;28;20223;-71
2022/09/16 09:52:43;;;;;;;1.27;0.67;;;;;;;14.76;100.00;99814.06;5024633;28;20208;-71
2022/09/16 09:55:15;;;;;;;5.63;2.33;;;;;;;14.75;100.00;99813.19;5028333;28;20641;-71
2022/09/16 09:57:50;;;;;;;4.17;0.70;;;;;;;14.64;100.00;99818.22;5024827;28;20209;-71
2022/09/16 10:00:20;;;;;;;1.30;0.80;;;;;;;14.63;100.00;99815.69;5020893;28;20230;-71
2022/09/16 10:02:48;;;;;;;0.57;0.57;;;;;;;14.64;100.00;99812.13;5027765;28;20612;-71
2022/09/16 10:05:23;;;;;;;1.67;1.13;;;;;;;14.80;100.00;99815.56;5026652;28;20192;-71
2022/09/16 10:07:52;;;;;;;1.03;0.90;;;;;;;14.90;100.00;99811.50;5022455;28;20201;-71
2022/09/16 10:10:22;;;;;;;1.83;1.00;;;;;;;14.93;100.00;99808.72;5023539;28;20219;-73
2022/09/16 10:12:49;;;;;;;1.00;0.60;;;;;;;15.01;100.00;99804.81;5028178;28;20210;-73
2022/09/16 10:15:23;;;;;;;2.13;0.70;;;;;;;15.18;100.00;99804.66;5027131;28;20200;-71
2022/09/16 10:17:52;;;;;;;1.33;0.53;;;;;;;15.34;100.00;99808.06;5025902;28;20196;-72
2022/09/16 10:20:26;;;;;;;0.93;0.60;;;;;;;15.49;100.00;99793.19;5026270;28;20216;-71
2022/09/16 10:22:59;;;;;;;2.90;0.73;;;;;;;15.56;100.00;99790.19;5025640;28;20235;-72
2022/09/16 10:25:31;;;;;;;0.47;0.40;;;;;;;15.67;100.00;99798.25;5019815;28;20205;-71
2022/09/16 10:28:00;;;;;;;1.97;0.70;;;;;;;15.68;100.00;99795.53;5021714;28;20235;-72
2022/09/16 10:30:28;;;;;;;0.50;0.50;;;;;;;15.73;100.00;99797.91;5027248;28;20688;-72
2022/09/16 10:33:01;;;;;;;2.43;0.60;;;;;;;15.59;100.00;99808.41;5024826;28;20228;-71
2022/09/16 10:35:29;;;;;;;0.47;0.47;;;;;;;15.48;100.00;99809.06;5020615;28;20823;-71
2022/09/16 10:37:58;;;;;;;1.63;0.50;;;;;;;15.48;100.00;99804.63;5025858;28;20276;-72
2022/09/16 10:40:25;;;;;;;0.50;0.50;;;;;;;15.32;100.00;99807.31;5020122;28;20220;-71
2022/09/16 10:42:54;;;;;;;0.67;0.53;;;;;;;15.14;100.00;99800.50;5028508;28;20208;-72
2022/09/16 10:45:26;;;;;;;0.67;0.60;;;;;;;15.01;100.00;99812.66;5021636;28;20192;-72
2022/09/16 10:47:56;;;;;;;0.63;0.53;;;;;;;14.62;100.00;99799.09;5022385;28;20200;-71
2022/09/16 10:50:25;;;;;;;0.50;0.50;;;;;;;14.52;100.00;99800.50;5023708;28;20200;-72
2022/09/16 10:52:52;;;;;;;1.30;0.60;;;;;;;14.45;100.00;99793.91;5028609;28;20205;-72
2022/09/16 10:55:25;;;;;;;2.60;0.70;;;;;;;14.63;100.00;99785.03;5027214;28;20227;-73
2022/09/16 10:57:54;;;;;;;1.17;0.43;;;;;;;14.92;100.00;99782.56;5023220;28;20227;-71
2022/09/16 11:00:22;;;;;;;0.60;0.60;;;;;;;15.03;100.00;99780.13;5025837;28;20230;-71
2022/09/16 11:03:31;;;;;;;1.00;0.60;;;;;;;15.08;100.00;99787.75;5023937;28;20215;-72
2022/09/16 11:06:11;;;;;;;0.60;0.50;;;;;;;15.03;100.00;99782.75;5020358;28;20211;-72
2022/09/16 11:08:49;;;;;;;1.50;0.57;;;;;;;15.20;100.00;99776.53;5023112;28;20700;-71
2022/09/16 11:11:24;;;;;;;1.10;0.70;;;;;;;15.37;100.00;99785.19;5020776;28;20200;-72
2022/09/16 11:14:01;;;;;;;0.63;0.40;;;;;;;15.42;100.00;99788.38;5021139;28;20211;-72
2022/09/16 11:16:53;;;;;;;1.80;0.63;;;;;;;15.58;100.00;99791.78;5021329;28;20677;-71
2022/09/16 11:19:26;;;;;;;1.13;0.40;;;;;;;15.74;100.00;99793.50;5023284;28;20223;-72
2022/09/16 11:22:07;;;;;;;0.40;0.40;;;;;;;15.63;100.00;99799.41;5024425;28;20661;-71
2022/09/16 11:24:57;;;;;;;1.20;0.50;;;;;;;15.68;100.00;99797.34;5027288;28;20219;-71
2022/09/16 11:27:36;;;;;;;0.40;0.40;;;;;;;15.78;100.00;99789.78;5026925;28;20631;-71
2022/09/16 11:30:09;;;;;;;0.60;0.60;;;;;;;15.74;100.00;99796.13;5024807;28;20234;-72
2022/09/16 11:33:06;;;;;;;0.93;0.63;;;;;;;15.97;100.00;99792.09;5024104;28;20208;-72
2022/09/16 11:35:57;;;;;;;0.87;0.47;;;;;;;15.95;100.00;99791.38;5027441;28;20212;-71
2022/09/16 11:38:37;;;;;;;1.23;0.47;;;;;;;16.06;100.00;99786.31;5021707;28;20227;-72
2022/09/16 11:41:10;;;;;;;1.50;0.70;;;;;;;16.03;100.00;99787.31;5020058;28;20282;-72